sensor_id;sensor_type;location;lat;lon;timestamp;pressure;altitude;pressure_sealevel;temperature;humidity
52745;BME280;38637;49.984;20.426;2024-02-14T00:01:41;99836.66;;;5.87;75.19
52745;BME280;38637;49.984;20.426;2024-02-14T00:04:06;99827.88;;;5.91;74.79
52745;BME280;38637;49.984;20.426;2024-02-14T00:06:35;99842.28;;;5.92;74.34
52745;BME280;38637;49.984;20.426;2024-02-14T00:09:01;99846.66;;;5.93;74.30
52745;BME280;38637;49.984;20.426;2024-02-14T00:11:26;99844.78;;;5.93;74.00
52745;BME280;38637;49.984;20.426;2024-02-14T00:13:51;99841.88;;;5.95;73.92
52745;BME280;38637;49.984;20.426;2024-02-14T00:16:16;99779.56;;;5.57;74.16
52745;BME280;38637;49.984;20.426;2024-02-14T00:18:42;99803.81;;;5.76;73.63
52745;BME280;38637;49.984;20.426;2024-02-14T00:21:07;99835.41;;;5.89;73.40
52745;BME280;38637;49.984;20.426;2024-02-14T00:23:32;99845.03;;;5.85;73.59
52745;BME280;38637;49.984;20.426;2024-02-14T00:25:58;99856.66;;;5.92;73.66
52745;BME280;38637;49.984;20.426;2024-02-14T00:28:23;99852.91;;;5.93;73.30
52745;BME280;38637;49.984;20.426;2024-02-14T00:30:51;99834.63;;;5.82;72.84
52745;BME280;38637;49.984;20.426;2024-02-14T00:33:17;99817.56;;;5.75;73.10
52745;BME280;38637;49.984;20.426;2024-02-14T00:35:43;99867.09;;;5.95;72.83
52745;BME280;38637;49.984;20.426;2024-02-14T00:38:09;99851.28;;;5.86;72.94
52745;BME280;38637;49.984;20.426;2024-02-14T00:40:34;99862.06;;;5.92;72.89
52745;BME280;38637;49.984;20.426;2024-02-14T00:43:00;99816.16;;;5.66;72.61
52745;BME280;38637;49.984;20.426;2024-02-14T00:45:25;99868.97;;;5.95;72.54
52745;BME280;38637;49.984;20.426;2024-02-14T00:47:50;99861.44;;;5.90;72.27
52745;BME280;38637;49.984;20.426;2024-02-14T00:50:16;99863.94;;;5.92;72.25
52745;BME280;38637;49.984;20.426;2024-02-14T00:52:41;99871.88;;;5.93;72.23
52745;BME280;38637;49.984;20.426;2024-02-14T00:55:07;99866.25;;;5.95;72.30
52745;BME280;38637;49.984;20.426;2024-02-14T00:57:32;99787.16;;;5.41;71.97
52745;BME280;38637;49.984;20.426;2024-02-14T00:59:57;99868.97;;;5.88;72.21
52745;BME280;38637;49.984;20.426;2024-02-14T01:02:23;99858.25;;;5.68;71.63
52745;BME280;38637;49.984;20.426;2024-02-14T01:04:49;99854.72;;;5.68;71.89
52745;BME280;38637;49.984;20.426;2024-02-14T01:07:14;99869.09;;;5.68;71.67
52745;BME280;38637;49.984;20.426;2024-02-14T01:09:39;99865.38;;;5.63;71.95
52745;BME280;38637;49.984;20.426;2024-02-14T01:12:04;99848.56;;;5.47;71.50
52745;BME280;38637;49.984;20.426;2024-02-14T01:14:31;99849.59;;;5.53;71.89
52745;BME280;38637;49.984;20.426;2024-02-14T01:16:56;99863.09;;;5.66;71.79
52745;BME280;38637;49.984;20.426;2024-02-14T01:19:21;99860.56;;;5.65;71.98
52745;BME280;38637;49.984;20.426;2024-02-14T01:21:49;99865.13;;;5.71;71.79
52745;BME280;38637;49.984;20.426;2024-02-14T01:24:15;99868.06;;;5.69;71.47
52745;BME280;38637;49.984;20.426;2024-02-14T01:26:41;99865.34;;;5.69;71.51
52745;BME280;38637;49.984;20.426;2024-02-14T01:29:06;99868.91;;;5.70;71.54
52745;BME280;38637;49.984;20.426;2024-02-14T01:31:33;99844.03;;;5.48;71.51
52745;BME280;38637;49.984;20.426;2024-02-14T01:33:59;99869.53;;;5.65;71.76
52745;BME280;38637;49.984;20.426;2024-02-14T01:36:28;99854.19;;;5.52;72.57
52745;BME280;38637;49.984;20.426;2024-02-14T01:38:53;99876.22;;;5.63;72.85
52745;BME280;38637;49.984;20.426;2024-02-14T01:41:18;99861.88;;;5.56;72.28
52745;BME280;38637;49.984;20.426;2024-02-14T01:43:44;99876.84;;;5.65;72.86
52745;BME280;38637;49.984;20.426;2024-02-14T01:46:10;99871.81;;;5.68;72.45
52745;BME280;38637;49.984;20.426;2024-02-14T01:48:36;99876.41;;;5.68;72.58
52745;BME280;38637;49.984;20.426;2024-02-14T01:51:03;99873.06;;;5.66;72.96
52745;BME280;38637;49.984;20.426;2024-02-14T01:53:30;99880.59;;;5.64;73.52
52745;BME280;38637;49.984;20.426;2024-02-14T01:55:59;99877.25;;;5.62;73.52
52745;BME280;38637;49.984;20.426;2024-02-14T01:58:25;99853.56;;;5.50;73.83
52745;BME280;38637;49.984;20.426;2024-02-14T02:00:51;99843.19;;;5.41;73.42
52745;BME280;38637;49.984;20.426;2024-02-14T02:03:23;99834.25;;;5.40;73.41
52745;BME280;38637;49.984;20.426;2024-02-14T02:05:48;99872.03;;;5.67;73.42
52745;BME280;38637;49.984;20.426;2024-02-14T02:08:14;99869.31;;;5.67;73.65
52745;BME280;38637;49.984;20.426;2024-02-14T02:10:40;99852.50;;;5.58;73.43
52745;BME280;38637;49.984;20.426;2024-02-14T02:13:05;99870.53;;;5.71;73.63
52745;BME280;38637;49.984;20.426;2024-02-14T02:15:31;99877.19;;;5.75;73.29
52745;BME280;38637;49.984;20.426;2024-02-14T02:17:56;99855.59;;;5.62;73.85
52745;BME280;38637;49.984;20.426;2024-02-14T02:20:22;99888.88;;;5.75;73.61
52745;BME280;38637;49.984;20.426;2024-02-14T02:22:48;99873.47;;;5.69;73.70
52745;BME280;38637;49.984;20.426;2024-02-14T02:25:14;99874.06;;;5.71;73.77
52745;BME280;38637;49.984;20.426;2024-02-14T02:27:39;99880.75;;;5.69;74.42
52745;BME280;38637;49.984;20.426;2024-02-14T02:30:07;99882.03;;;5.66;74.02
52745;BME280;38637;49.984;20.426;2024-02-14T02:32:35;99886.03;;;5.64;74.72
52745;BME280;38637;49.984;20.426;2024-02-14T02:35:01;99879.78;;;5.63;74.59
52745;BME280;38637;49.984;20.426;2024-02-14T02:37:27;99843.44;;;5.39;74.39
52745;BME280;38637;49.984;20.426;2024-02-14T02:39:54;99876.44;;;5.61;74.64
52745;BME280;38637;49.984;20.426;2024-02-14T02:42:20;99883.31;;;5.64;74.96
52745;BME280;38637;49.984;20.426;2024-02-14T02:44:50;99871.03;;;5.61;75.00
52745;BME280;38637;49.984;20.426;2024-02-14T02:47:15;99866.25;;;5.57;74.71
52745;BME280;38637;49.984;20.426;2024-02-14T02:49:42;99871.09;;;5.48;75.27
52745;BME280;38637;49.984;20.426;2024-02-14T02:52:12;99885.19;;;5.57;75.45
52745;BME280;38637;49.984;20.426;2024-02-14T02:54:37;99877.75;;;5.52;75.53
52745;BME280;38637;49.984;20.426;2024-02-14T02:57:08;99881.72;;;5.49;75.63
52745;BME280;38637;49.984;20.426;2024-02-14T02:59:35;99882.13;;;5.46;76.54
52745;BME280;38637;49.984;20.426;2024-02-14T03:02:01;99862.00;;;5.29;77.05
52745;BME280;38637;49.984;20.426;2024-02-14T03:04:27;99881.13;;;5.41;76.70
52745;BME280;38637;49.984;20.426;2024-02-14T03:06:52;99901.97;;;5.40;76.79
52745;BME280;38637;49.984;20.426;2024-02-14T03:09:18;99890.91;;;5.42;76.97
52745;BME280;38637;49.984;20.426;2024-02-14T03:11:47;99856.22;;;5.19;76.82
52745;BME280;38637;49.984;20.426;2024-02-14T03:14:15;99896.94;;;5.44;76.42
52745;BME280;38637;49.984;20.426;2024-02-14T03:16:40;99868.69;;;5.26;76.84
52745;BME280;38637;49.984;20.426;2024-02-14T03:19:06;99858.69;;;5.20;76.77
52745;BME280;38637;49.984;20.426;2024-02-14T03:21:31;99881.38;;;5.33;76.54
52745;BME280;38637;49.984;20.426;2024-02-14T03:24:01;99886.75;;;5.39;76.78
52745;BME280;38637;49.984;20.426;2024-02-14T03:26:28;99868.91;;;5.25;76.55
52745;BME280;38637;49.984;20.426;2024-02-14T03:28:53;99897.59;;;5.39;76.85
52745;BME280;38637;49.984;20.426;2024-02-14T03:31:19;99895.91;;;5.38;76.66
52745;BME280;38637;49.984;20.426;2024-02-14T03:33:45;99892.22;;;5.33;76.57
52745;BME280;38637;49.984;20.426;2024-02-14T03:36:11;99860.63;;;5.13;76.44
52745;BME280;38637;49.984;20.426;2024-02-14T03:38:36;99910.75;;;5.36;76.75
52745;BME280;38637;49.984;20.426;2024-02-14T03:41:01;99885.38;;;5.17;76.92
52745;BME280;38637;49.984;20.426;2024-02-14T03:43:28;99902.41;;;5.30;76.63
52745;BME280;38637;49.984;20.426;2024-02-14T03:45:53;99906.16;;;5.36;76.57
52745;BME280;38637;49.984;20.426;2024-02-14T03:48:19;99883.91;;;5.21;76.34
52745;BME280;38637;49.984;20.426;2024-02-14T03:50:45;99915.72;;;5.39;76.50
52745;BME280;38637;49.984;20.426;2024-02-14T03:53:10;99909.44;;;5.38;76.39
52745;BME280;38637;49.984;20.426;2024-02-14T03:55:40;99908.44;;;5.39;76.16
52745;BME280;38637;49.984;20.426;2024-02-14T03:58:05;99908.00;;;5.42;76.39
52745;BME280;38637;49.984;20.426;2024-02-14T04:00:31;99914.00;;;5.44;75.83
52745;BME280;38637;49.984;20.426;2024-02-14T04:02:57;99912.78;;;5.40;75.55
52745;BME280;38637;49.984;20.426;2024-02-14T04:05:25;99917.56;;;5.45;75.76
52745;BME280;38637;49.984;20.426;2024-02-14T04:07:52;99913.38;;;5.49;75.60
52745;BME280;38637;49.984;20.426;2024-02-14T04:10:18;99911.09;;;5.46;75.86
52745;BME280;38637;49.984;20.426;2024-02-14T04:12:43;99914.22;;;5.49;75.85
52745;BME280;38637;49.984;20.426;2024-02-14T04:15:09;99886.16;;;5.30;75.64
52745;BME280;38637;49.984;20.426;2024-02-14T04:17:34;99891.97;;;5.34;75.49
52745;BME280;38637;49.984;20.426;2024-02-14T04:19:59;99927.94;;;5.55;75.69
52745;BME280;38637;49.984;20.426;2024-02-14T04:22:24;99933.97;;;5.57;74.99
52745;BME280;38637;49.984;20.426;2024-02-14T04:24:50;99916.94;;;5.43;76.17
52745;BME280;38637;49.984;20.426;2024-02-14T04:27:15;99931.13;;;5.45;76.23
52745;BME280;38637;49.984;20.426;2024-02-14T04:29:40;99915.31;;;5.28;76.77
52745;BME280;38637;49.984;20.426;2024-02-14T04:32:09;99924.88;;;5.38;76.08
52745;BME280;38637;49.984;20.426;2024-02-14T04:34:35;99937.59;;;5.37;76.52
52745;BME280;38637;49.984;20.426;2024-02-14T04:37:03;99930.72;;;5.35;76.32
52745;BME280;38637;49.984;20.426;2024-02-14T04:39:35;99907.84;;;5.17;75.78
52745;BME280;38637;49.984;20.426;2024-02-14T04:42:00;99924.88;;;5.38;76.15
52745;BME280;38637;49.984;20.426;2024-02-14T04:44:26;99930.91;;;5.40;76.63
52745;BME280;38637;49.984;20.426;2024-02-14T04:46:51;99900.56;;;5.24;76.53
52745;BME280;38637;49.984;20.426;2024-02-14T04:49:17;99902.66;;;5.22;76.13
52745;BME280;38637;49.984;20.426;2024-02-14T04:51:42;99920.28;;;5.38;76.65
52745;BME280;38637;49.984;20.426;2024-02-14T04:54:07;99938.59;;;5.49;76.23
52745;BME280;38637;49.984;20.426;2024-02-14T04:56:34;99917.56;;;5.38;76.43
52745;BME280;38637;49.984;20.426;2024-02-14T04:58:59;99909.88;;;5.35;76.01
52745;BME280;38637;49.984;20.426;2024-02-14T05:01:24;99927.56;;;5.51;75.61
52745;BME280;38637;49.984;20.426;2024-02-14T05:03:50;99930.25;;;5.51;75.75
52745;BME280;38637;49.984;20.426;2024-02-14T05:06:15;99935.69;;;5.51;75.71
52745;BME280;38637;49.984;20.426;2024-02-14T05:08:41;99940.03;;;5.52;75.69
52745;BME280;38637;49.984;20.426;2024-02-14T05:11:06;99928.84;;;5.42;75.68
52745;BME280;38637;49.984;20.426;2024-02-14T05:13:31;99943.56;;;5.52;75.70
52745;BME280;38637;49.984;20.426;2024-02-14T05:15:57;99918.44;;;5.39;75.55
52745;BME280;38637;49.984;20.426;2024-02-14T05:18:22;99933.41;;;5.48;75.67
52745;BME280;38637;49.984;20.426;2024-02-14T05:20:48;99952.50;;;5.66;75.72
52745;BME280;38637;49.984;20.426;2024-02-14T05:23:13;99959.34;;;5.69;75.12
52745;BME280;38637;49.984;20.426;2024-02-14T05:25:38;99958.91;;;5.72;75.74
52745;BME280;38637;49.984;20.426;2024-02-14T05:28:04;99956.00;;;5.73;75.40
52745;BME280;38637;49.984;20.426;2024-02-14T05:30:30;99944.75;;;5.70;75.46
52745;BME280;38637;49.984;20.426;2024-02-14T05:32:56;99947.63;;;5.75;76.21
52745;BME280;38637;49.984;20.426;2024-02-14T05:35:22;99898.81;;;5.43;76.15
52745;BME280;38637;49.984;20.426;2024-02-14T05:37:47;99957.44;;;5.76;76.35
52745;BME280;38637;49.984;20.426;2024-02-14T05:40:15;99911.09;;;5.46;76.50
52745;BME280;38637;49.984;20.426;2024-02-14T05:42:40;99963.06;;;5.74;76.43
52745;BME280;38637;49.984;20.426;2024-02-14T05:45:06;99958.47;;;5.75;76.18
52745;BME280;38637;49.984;20.426;2024-02-14T05:47:34;99963.88;;;5.75;76.50
52745;BME280;38637;49.984;20.426;2024-02-14T05:50:00;99968.09;;;5.71;76.00
52745;BME280;38637;49.984;20.426;2024-02-14T05:52:26;99971.19;;;5.74;76.00
52745;BME280;38637;49.984;20.426;2024-02-14T05:54:51;99951.91;;;5.58;75.71
52745;BME280;38637;49.984;20.426;2024-02-14T05:57:17;99975.38;;;5.70;76.25
52745;BME280;38637;49.984;20.426;2024-02-14T05:59:42;99971.03;;;5.69;75.64
52745;BME280;38637;49.984;20.426;2024-02-14T06:02:07;99974.16;;;5.66;75.78
52745;BME280;38637;49.984;20.426;2024-02-14T06:04:34;99928.00;;;5.35;75.44
52745;BME280;38637;49.984;20.426;2024-02-14T06:07:00;99978.72;;;5.66;75.21
52745;BME280;38637;49.984;20.426;2024-02-14T06:09:26;99987.91;;;5.65;75.81
52745;BME280;38637;49.984;20.426;2024-02-14T06:11:52;99986.25;;;5.64;75.97
52745;BME280;38637;49.984;20.426;2024-02-14T06:14:17;99986.47;;;5.62;75.76
52745;BME280;38637;49.984;20.426;2024-02-14T06:16:43;99954.84;;;5.49;75.88
52745;BME280;38637;49.984;20.426;2024-02-14T06:19:09;99957.78;;;5.48;76.09
52745;BME280;38637;49.984;20.426;2024-02-14T06:21:35;99990.59;;;5.71;75.65
52745;BME280;38637;49.984;20.426;2024-02-14T06:24:01;99901.19;;;5.20;76.14
52745;BME280;38637;49.984;20.426;2024-02-14T06:26:29;99967.75;;;5.54;76.18
52745;BME280;38637;49.984;20.426;2024-02-14T06:28:54;99992.28;;;5.72;76.73
52745;BME280;38637;49.984;20.426;2024-02-14T06:31:20;99981.00;;;5.69;76.33
52745;BME280;38637;49.984;20.426;2024-02-14T06:33:46;99965.84;;;5.61;76.29
52745;BME280;38637;49.984;20.426;2024-02-14T06:36:11;99994.94;;;5.79;76.18
52745;BME280;38637;49.984;20.426;2024-02-14T06:38:36;99964.59;;;5.64;76.71
52745;BME280;38637;49.984;20.426;2024-02-14T06:41:02;99941.91;;;5.51;75.76
52745;BME280;38637;49.984;20.426;2024-02-14T06:43:27;99986.00;;;5.72;75.73
52745;BME280;38637;49.984;20.426;2024-02-14T06:45:55;99948.59;;;5.49;75.87
52745;BME280;38637;49.984;20.426;2024-02-14T06:48:20;99967.69;;;5.67;76.29
52745;BME280;38637;49.984;20.426;2024-02-14T06:50:48;99983.06;;;5.80;76.90
52745;BME280;38637;49.984;20.426;2024-02-14T06:53:14;99968.09;;;5.71;77.36
52745;BME280;38637;49.984;20.426;2024-02-14T06:55:39;99991.78;;;5.89;76.79
52745;BME280;38637;49.984;20.426;2024-02-14T06:58:04;100004.06;;;5.91;76.95
52745;BME280;38637;49.984;20.426;2024-02-14T07:00:30;100008.28;;;5.94;76.90
52745;BME280;38637;49.984;20.426;2024-02-14T07:02:55;100002.63;;;5.95;77.18
52745;BME280;38637;49.984;20.426;2024-02-14T07:05:20;99994.47;;;5.95;77.46
52745;BME280;38637;49.984;20.426;2024-02-14T07:07:45;100003.41;;;6.03;77.17
52745;BME280;38637;49.984;20.426;2024-02-14T07:10:12;100004.84;;;6.05;77.01
52745;BME280;38637;49.984;20.426;2024-02-14T07:12:38;99979.28;;;5.94;76.98
52745;BME280;38637;49.984;20.426;2024-02-14T07:15:05;100002.53;;;6.09;76.45
52745;BME280;38637;49.984;20.426;2024-02-14T07:17:30;100002.97;;;6.12;75.96
52745;BME280;38637;49.984;20.426;2024-02-14T07:19:56;99984.44;;;6.03;75.61
52745;BME280;38637;49.984;20.426;2024-02-14T07:22:21;100004.66;;;6.07;74.87
52745;BME280;38637;49.984;20.426;2024-02-14T07:24:47;100007.53;;;6.12;74.28
52745;BME280;38637;49.984;20.426;2024-02-14T07:27:14;99994.25;;;6.04;74.38
52745;BME280;38637;49.984;20.426;2024-02-14T07:29:39;99969.25;;;5.88;74.51
52745;BME280;38637;49.984;20.426;2024-02-14T07:32:05;99984.00;;;6.06;74.54
52745;BME280;38637;49.984;20.426;2024-02-14T07:34:31;99988.00;;;5.96;74.59
52745;BME280;38637;49.984;20.426;2024-02-14T07:36:56;99990.47;;;6.05;74.90
52745;BME280;38637;49.984;20.426;2024-02-14T07:39:22;99978.03;;;5.97;74.90
52745;BME280;38637;49.984;20.426;2024-02-14T07:41:47;99983.00;;;6.00;74.50
52745;BME280;38637;49.984;20.426;2024-02-14T07:44:12;99997.34;;;6.07;72.97
52745;BME280;38637;49.984;20.426;2024-02-14T07:46:38;99973.47;;;5.78;72.11
52745;BME280;38637;49.984;20.426;2024-02-14T07:49:03;100003.00;;;5.99;72.46
52745;BME280;38637;49.984;20.426;2024-02-14T07:51:30;99968.25;;;5.83;72.91
52745;BME280;38637;49.984;20.426;2024-02-14T07:53:55;99999.63;;;6.10;73.24
52745;BME280;38637;49.984;20.426;2024-02-14T07:56:20;99938.94;;;5.66;71.95
52745;BME280;38637;49.984;20.426;2024-02-14T07:58:46;99974.25;;;5.91;72.56
52745;BME280;38637;49.984;20.426;2024-02-14T08:01:11;99935.97;;;5.74;72.04
52745;BME280;38637;49.984;20.426;2024-02-14T08:03:36;100006.84;;;6.23;71.71
52745;BME280;38637;49.984;20.426;2024-02-14T08:06:02;100003.25;;;6.29;71.99
52745;BME280;38637;49.984;20.426;2024-02-14T08:08:27;100002.88;;;6.26;71.36
52745;BME280;38637;49.984;20.426;2024-02-14T08:10:52;99960.41;;;6.13;71.36
52745;BME280;38637;49.984;20.426;2024-02-14T08:13:18;99954.97;;;6.13;70.56
52745;BME280;38637;49.984;20.426;2024-02-14T08:15:43;99996.44;;;6.52;70.88
52745;BME280;38637;49.984;20.426;2024-02-14T08:18:08;100000.97;;;6.58;70.32
52745;BME280;38637;49.984;20.426;2024-02-14T08:20:34;100008.84;;;6.66;69.45
52745;BME280;38637;49.984;20.426;2024-02-14T08:22:59;99996.34;;;6.65;68.27
52745;BME280;38637;49.984;20.426;2024-02-14T08:25:24;100006.03;;;6.79;68.67
52745;BME280;38637;49.984;20.426;2024-02-14T08:27:49;100017.69;;;6.86;68.00
52745;BME280;38637;49.984;20.426;2024-02-14T08:30:15;100016.34;;;6.96;67.36
52745;BME280;38637;49.984;20.426;2024-02-14T08:32:42;99992.81;;;6.89;66.73
52745;BME280;38637;49.984;20.426;2024-02-14T08:35:07;100014.56;;;7.08;65.93
52745;BME280;38637;49.984;20.426;2024-02-14T08:37:34;100018.50;;;7.12;62.72
52745;BME280;38637;49.984;20.426;2024-02-14T08:40:02;99990.03;;;6.96;62.04
52745;BME280;38637;49.984;20.426;2024-02-14T08:42:30;100012.16;;;7.18;60.44
52745;BME280;38637;49.984;20.426;2024-02-14T08:44:56;100000.09;;;7.14;61.67
52745;BME280;38637;49.984;20.426;2024-02-14T08:47:21;99983.34;;;7.17;60.72
52745;BME280;38637;49.984;20.426;2024-02-14T08:49:46;99955.56;;;6.97;60.91
52745;BME280;38637;49.984;20.426;2024-02-14T08:52:12;100007.44;;;7.32;60.63
52745;BME280;38637;49.984;20.426;2024-02-14T08:54:37;100002.69;;;7.27;59.63
52745;BME280;38637;49.984;20.426;2024-02-14T08:57:02;99981.84;;;7.21;58.15
52745;BME280;38637;49.984;20.426;2024-02-14T08:59:28;100004.88;;;7.37;58.06
52745;BME280;38637;49.984;20.426;2024-02-14T09:01:54;99990.28;;;7.31;58.14
52745;BME280;38637;49.984;20.426;2024-02-14T09:04:19;100007.59;;;7.55;57.51
52745;BME280;38637;49.984;20.426;2024-02-14T09:06:44;99993.88;;;7.50;56.86
52745;BME280;38637;49.984;20.426;2024-02-14T09:09:09;99979.31;;;7.45;55.12
52745;BME280;38637;49.984;20.426;2024-02-14T09:11:35;100004.50;;;7.70;55.53
52745;BME280;38637;49.984;20.426;2024-02-14T09:14:01;100001.03;;;7.81;56.30
52745;BME280;38637;49.984;20.426;2024-02-14T09:16:31;99976.19;;;7.78;54.84
52745;BME280;38637;49.984;20.426;2024-02-14T09:18:56;100000.84;;;7.95;53.42
52745;BME280;38637;49.984;20.426;2024-02-14T09:21:22;99986.75;;;7.86;52.86
52745;BME280;38637;49.984;20.426;2024-02-14T09:23:48;99995.41;;;7.95;52.20
52745;BME280;38637;49.984;20.426;2024-02-14T09:26:13;99960.81;;;7.72;51.86
52745;BME280;38637;49.984;20.426;2024-02-14T09:28:42;99983.72;;;7.94;52.05
52745;BME280;38637;49.984;20.426;2024-02-14T09:31:08;100005.69;;;8.11;50.30
52745;BME280;38637;49.984;20.426;2024-02-14T09:33:36;100014.13;;;8.21;51.57
52745;BME280;38637;49.984;20.426;2024-02-14T09:36:02;99980.88;;;8.19;51.50
52745;BME280;38637;49.984;20.426;2024-02-14T09:38:27;100002.16;;;8.41;51.91
52745;BME280;38637;49.984;20.426;2024-02-14T09:40:58;100008.91;;;8.50;49.32
52745;BME280;38637;49.984;20.426;2024-02-14T09:43:36;99992.00;;;8.48;50.83
52745;BME280;38637;49.984;20.426;2024-02-14T09:46:01;100007.19;;;8.67;49.18
52745;BME280;38637;49.984;20.426;2024-02-14T09:48:29;99958.97;;;8.44;49.43
52745;BME280;38637;49.984;20.426;2024-02-14T09:50:54;100003.06;;;8.77;49.83
52745;BME280;38637;49.984;20.426;2024-02-14T09:53:21;99997.38;;;8.78;49.77
52745;BME280;38637;49.984;20.426;2024-02-14T09:55:48;99986.38;;;8.73;50.45
52745;BME280;38637;49.984;20.426;2024-02-14T09:58:14;100006.25;;;8.73;50.73
52745;BME280;38637;49.984;20.426;2024-02-14T10:00:40;99991.19;;;8.59;50.69
52745;BME280;38637;49.984;20.426;2024-02-14T10:03:06;100009.31;;;8.65;50.83
52745;BME280;38637;49.984;20.426;2024-02-14T10:05:31;99992.97;;;8.65;51.04
52745;BME280;38637;49.984;20.426;2024-02-14T10:07:57;99990.75;;;8.74;50.40
52745;BME280;38637;49.984;20.426;2024-02-14T10:10:26;99988.03;;;8.74;50.51
52745;BME280;38637;49.984;20.426;2024-02-14T10:12:54;99979.16;;;8.79;51.08
52745;BME280;38637;49.984;20.426;2024-02-14T10:15:20;99993.03;;;9.01;50.84
52745;BME280;38637;49.984;20.426;2024-02-14T10:17:45;99977.03;;;9.04;50.86
52745;BME280;38637;49.984;20.426;2024-02-14T10:20:11;99990.75;;;9.21;49.81
52745;BME280;38637;49.984;20.426;2024-02-14T10:22:37;99985.31;;;9.33;50.21
52745;BME280;38637;49.984;20.426;2024-02-14T10:25:03;99974.66;;;9.43;49.79
52745;BME280;38637;49.984;20.426;2024-02-14T10:27:32;99963.63;;;9.50;50.24
52745;BME280;38637;49.984;20.426;2024-02-14T10:29:57;99967.72;;;9.64;50.00
52745;BME280;38637;49.984;20.426;2024-02-14T10:32:23;99970.69;;;9.74;49.09
52745;BME280;38637;49.984;20.426;2024-02-14T10:34:49;99971.34;;;9.81;47.66
52745;BME280;38637;49.984;20.426;2024-02-14T10:37:15;99954.75;;;9.83;48.11
52745;BME280;38637;49.984;20.426;2024-02-14T10:39:44;99970.94;;;10.01;47.81
52745;BME280;38637;49.984;20.426;2024-02-14T10:42:12;99972.00;;;10.00;46.68
52745;BME280;38637;49.984;20.426;2024-02-14T10:44:37;99944.41;;;9.85;45.52
52745;BME280;38637;49.984;20.426;2024-02-14T10:47:05;99966.09;;;9.92;44.99
52745;BME280;38637;49.984;20.426;2024-02-14T10:49:35;99971.69;;;9.85;45.57
52745;BME280;38637;49.984;20.426;2024-02-14T10:52:05;99956.22;;;9.74;45.19
52745;BME280;38637;49.984;20.426;2024-02-14T10:54:34;99963.78;;;9.83;45.77
52745;BME280;38637;49.984;20.426;2024-02-14T10:57:05;99960.63;;;9.92;45.90
52745;BME280;38637;49.984;20.426;2024-02-14T10:59:43;99938.22;;;10.01;46.46
52745;BME280;38637;49.984;20.426;2024-02-14T11:02:10;99948.81;;;10.43;47.14
52745;BME280;38637;49.984;20.426;2024-02-14T11:04:35;99947.84;;;10.66;47.21
52745;BME280;38637;49.984;20.426;2024-02-14T11:07:02;99953.53;;;10.98;46.12
52745;BME280;38637;49.984;20.426;2024-02-14T11:09:32;99955.25;;;11.21;45.12
52745;BME280;38637;49.984;20.426;2024-02-14T11:12:00;99955.88;;;11.28;43.17
52745;BME280;38637;49.984;20.426;2024-02-14T11:14:31;99934.78;;;11.24;44.13
52745;BME280;38637;49.984;20.426;2024-02-14T11:16:59;99949.69;;;11.33;42.37
52745;BME280;38637;49.984;20.426;2024-02-14T11:19:31;99958.50;;;11.40;41.90
52745;BME280;38637;49.984;20.426;2024-02-14T11:22:10;99950.19;;;11.52;42.80
52745;BME280;38637;49.984;20.426;2024-02-14T11:24:37;99942.63;;;11.59;41.95
52745;BME280;38637;49.984;20.426;2024-02-14T11:27:02;99941.53;;;11.82;41.14
52745;BME280;38637;49.984;20.426;2024-02-14T11:29:31;99914.38;;;11.98;41.04
52745;BME280;38637;49.984;20.426;2024-02-14T11:32:00;99920.09;;;12.23;40.23
52745;BME280;38637;49.984;20.426;2024-02-14T11:34:26;99938.44;;;12.50;39.88
52745;BME280;38637;49.984;20.426;2024-02-14T11:36:52;99893.97;;;12.37;40.48
52745;BME280;38637;49.984;20.426;2024-02-14T11:39:17;99931.56;;;12.47;39.09
52745;BME280;38637;49.984;20.426;2024-02-14T11:41:42;99919.66;;;12.31;39.42
52745;BME280;38637;49.984;20.426;2024-02-14T11:44:08;99931.81;;;12.46;40.40
52745;BME280;38637;49.984;20.426;2024-02-14T11:46:35;99921.88;;;12.39;39.86
52745;BME280;38637;49.984;20.426;2024-02-14T11:49:04;99920.78;;;12.35;39.92
52745;BME280;38637;49.984;20.426;2024-02-14T11:51:33;99921.66;;;12.41;39.99
52745;BME280;38637;49.984;20.426;2024-02-14T11:53:59;99918.09;;;12.40;39.61
52745;BME280;38637;49.984;20.426;2024-02-14T11:56:32;99919.03;;;12.56;39.16
52745;BME280;38637;49.984;20.426;2024-02-14T11:58:59;99913.09;;;12.70;39.74
52745;BME280;38637;49.984;20.426;2024-02-14T12:01:25;99904.06;;;12.69;38.95
52745;BME280;38637;49.984;20.426;2024-02-14T12:03:51;99905.28;;;12.83;38.25
52745;BME280;38637;49.984;20.426;2024-02-14T12:06:17;99902.06;;;12.97;38.92
52745;BME280;38637;49.984;20.426;2024-02-14T12:08:42;99875.56;;;13.07;38.70
52745;BME280;38637;49.984;20.426;2024-02-14T12:11:08;99901.97;;;13.24;39.05
52745;BME280;38637;49.984;20.426;2024-02-14T12:13:34;99882.56;;;13.36;37.73
52745;BME280;38637;49.984;20.426;2024-02-14T12:16:03;99875.47;;;13.45;37.60
52745;BME280;38637;49.984;20.426;2024-02-14T12:18:28;99901.84;;;13.51;36.87
52745;BME280;38637;49.984;20.426;2024-02-14T12:21:03;99894.66;;;13.40;37.10
52745;BME280;38637;49.984;20.426;2024-02-14T12:23:28;99899.19;;;13.76;35.72
52745;BME280;38637;49.984;20.426;2024-02-14T12:26:01;99871.50;;;13.88;36.61
52745;BME280;38637;49.984;20.426;2024-02-14T12:28:29;99894.63;;;14.43;37.17
52745;BME280;38637;49.984;20.426;2024-02-14T12:30:55;99867.97;;;14.90;36.93
52745;BME280;38637;49.984;20.426;2024-02-14T12:33:24;99886.59;;;15.24;33.43
52745;BME280;38637;49.984;20.426;2024-02-14T12:35:51;99912.91;;;15.55;33.32
52745;BME280;38637;49.984;20.426;2024-02-14T12:38:17;99913.69;;;15.76;33.82
52745;BME280;38637;49.984;20.426;2024-02-14T12:40:43;99885.59;;;15.74;33.96
52745;BME280;38637;49.984;20.426;2024-02-14T12:43:13;99901.16;;;15.99;33.74
52745;BME280;38637;49.984;20.426;2024-02-14T12:45:40;99889.47;;;15.73;33.13
52745;BME280;38637;49.984;20.426;2024-02-14T12:48:06;99908.44;;;15.75;32.92
52745;BME280;38637;49.984;20.426;2024-02-14T12:50:33;99907.63;;;15.79;33.57
52745;BME280;38637;49.984;20.426;2024-02-14T12:53:00;99904.97;;;16.03;34.06